sensor_id;sensor_type;location;lat;lon;timestamp;P1;durP1;ratioP1;P2;durP2;ratioP2
19251;SDS011;9760;50.944;5.304;2022-07-29T00:01:21;9.67;;;2.70;;
19251;SDS011;9760;50.944;5.304;2022-07-29T00:03:47;11.60;;;3.03;;
19251;SDS011;9760;50.944;5.304;2022-07-29T00:06:13;10.47;;;2.30;;
19251;SDS011;9760;50.944;5.304;2022-07-29T00:08:40;4.47;;;2.37;;
19251;SDS011;9760;50.944;5.304;2022-07-29T00:11:06;5.53;;;1.90;;
19251;SDS011;9760;50.944;5.304;2022-07-29T00:13:32;9.33;;;2.33;;
19251;SDS011;9760;50.944;5.304;2022-07-29T00:15:57;8.33;;;2.40;;
19251;SDS011;9760;50.944;5.304;2022-07-29T00:18:23;10.27;;;2.70;;
19251;SDS011;9760;50.944;5.304;2022-07-29T00:20:49;7.53;;;3.30;;
19251;SDS011;9760;50.944;5.304;2022-07-29T00:23:14;12.63;;;3.20;;
19251;SDS011;9760;50.944;5.304;2022-07-29T00:25:40;12.47;;;3.03;;
19251;SDS011;9760;50.944;5.304;2022-07-29T00:28:06;7.80;;;2.70;;
19251;SDS011;9760;50.944;5.304;2022-07-29T00:30:31;6.60;;;2.60;;
19251;SDS011;9760;50.944;5.304;2022-07-29T00:32:57;8.77;;;2.30;;
19251;SDS011;9760;50.944;5.304;2022-07-29T00:35:23;9.03;;;2.53;;
19251;SDS011;9760;50.944;5.304;2022-07-29T00:38:07;14.63;;;3.03;;
19251;SDS011;9760;50.944;5.304;2022-07-29T00:40:32;9.90;;;3.13;;
19251;SDS011;9760;50.944;5.304;2022-07-29T00:42:58;5.73;;;2.57;;
19251;SDS011;9760;50.944;5.304;2022-07-29T00:45:23;6.97;;;2.77;;
19251;SDS011;9760;50.944;5.304;2022-07-29T00:47:49;5.53;;;2.50;;
19251;SDS011;9760;50.944;5.304;2022-07-29T00:50:15;7.27;;;2.90;;
19251;SDS011;9760;50.944;5.304;2022-07-29T00:52:41;9.13;;;2.40;;
19251;SDS011;9760;50.944;5.304;2022-07-29T00:55:09;7.33;;;2.53;;
19251;SDS011;9760;50.944;5.304;2022-07-29T00:57:38;12.77;;;2.57;;
19251;SDS011;9760;50.944;5.304;2022-07-29T01:00:06;5.67;;;3.13;;
19251;SDS011;9760;50.944;5.304;2022-07-29T01:02:34;9.90;;;2.87;;
19251;SDS011;9760;50.944;5.304;2022-07-29T01:05:02;8.90;;;2.40;;
19251;SDS011;9760;50.944;5.304;2022-07-29T01:07:29;8.53;;;2.40;;
19251;SDS011;9760;50.944;5.304;2022-07-29T01:09:56;10.07;;;2.87;;
19251;SDS011;9760;50.944;5.304;2022-07-29T01:12:24;11.87;;;3.27;;
19251;SDS011;9760;50.944;5.304;2022-07-29T01:14:52;9.17;;;2.27;;
19251;SDS011;9760;50.944;5.304;2022-07-29T01:17:32;7.50;;;2.03;;
19251;SDS011;9760;50.944;5.304;2022-07-29T01:31:11;3.20;;;1.80;;
19251;SDS011;9760;50.944;5.304;2022-07-29T01:33:41;7.20;;;2.10;;
19251;SDS011;9760;50.944;5.304;2022-07-29T01:36:23;8.57;;;2.60;;
19251;SDS011;9760;50.944;5.304;2022-07-29T01:41:35;8.17;;;1.97;;
19251;SDS011;9760;50.944;5.304;2022-07-29T01:44:12;8.13;;;1.90;;
19251;SDS011;9760;50.944;5.304;2022-07-29T01:46:49;5.57;;;1.97;;
19251;SDS011;9760;50.944;5.304;2022-07-29T01:49:23;6.47;;;2.13;;
19251;SDS011;9760;50.944;5.304;2022-07-29T01:54:37;10.60;;;2.57;;
19251;SDS011;9760;50.944;5.304;2022-07-29T01:57:11;11.27;;;2.50;;
19251;SDS011;9760;50.944;5.304;2022-07-29T01:59:40;5.23;;;2.00;;
19251;SDS011;9760;50.944;5.304;2022-07-29T02:02:08;11.67;;;2.53;;
19251;SDS011;9760;50.944;5.304;2022-07-29T02:04:36;8.40;;;2.70;;
19251;SDS011;9760;50.944;5.304;2022-07-29T02:07:05;6.10;;;2.27;;
19251;SDS011;9760;50.944;5.304;2022-07-29T02:09:33;9.07;;;2.50;;
19251;SDS011;9760;50.944;5.304;2022-07-29T02:12:02;9.80;;;2.33;;
19251;SDS011;9760;50.944;5.304;2022-07-29T02:14:31;7.00;;;2.40;;
19251;SDS011;9760;50.944;5.304;2022-07-29T02:17:01;7.80;;;2.60;;
19251;SDS011;9760;50.944;5.304;2022-07-29T02:19:28;11.37;;;2.70;;
19251;SDS011;9760;50.944;5.304;2022-07-29T02:21:56;7.70;;;2.37;;
19251;SDS011;9760;50.944;5.304;2022-07-29T02:24:24;4.27;;;2.40;;
19251;SDS011;9760;50.944;5.304;2022-07-29T02:26:52;8.50;;;3.00;;
19251;SDS011;9760;50.944;5.304;2022-07-29T02:29:22;4.97;;;2.63;;
19251;SDS011;9760;50.944;5.304;2022-07-29T02:31:50;9.07;;;2.63;;
19251;SDS011;9760;50.944;5.304;2022-07-29T02:34:18;6.47;;;2.50;;
19251;SDS011;9760;50.944;5.304;2022-07-29T02:36:46;5.97;;;2.40;;
19251;SDS011;9760;50.944;5.304;2022-07-29T02:39:13;6.60;;;2.40;;
19251;SDS011;9760;50.944;5.304;2022-07-29T02:41:42;9.23;;;2.77;;
19251;SDS011;9760;50.944;5.304;2022-07-29T02:44:17;8.67;;;2.60;;
19251;SDS011;9760;50.944;5.304;2022-07-29T02:46:56;15.73;;;2.90;;
19251;SDS011;9760;50.944;5.304;2022-07-29T02:49:36;7.67;;;2.57;;
19251;SDS011;9760;50.944;5.304;2022-07-29T02:54:55;6.90;;;2.60;;
19251;SDS011;9760;50.944;5.304;2022-07-29T03:00:07;6.83;;;2.47;;
19251;SDS011;9760;50.944;5.304;2022-07-29T03:02:39;6.90;;;2.67;;
19251;SDS011;9760;50.944;5.304;2022-07-29T03:05:09;10.27;;;2.20;;
19251;SDS011;9760;50.944;5.304;2022-07-29T03:07:40;7.67;;;2.27;;
19251;SDS011;9760;50.944;5.304;2022-07-29T03:10:08;6.43;;;2.20;;
19251;SDS011;9760;50.944;5.304;2022-07-29T03:12:34;6.50;;;2.57;;
19251;SDS011;9760;50.944;5.304;2022-07-29T03:15:00;4.80;;;2.50;;
19251;SDS011;9760;50.944;5.304;2022-07-29T03:17:27;2.87;;;2.00;;
19251;SDS011;9760;50.944;5.304;2022-07-29T03:19:53;7.70;;;2.43;;
19251;SDS011;9760;50.944;5.304;2022-07-29T03:22:19;7.83;;;2.53;;
19251;SDS011;9760;50.944;5.304;2022-07-29T03:24:45;7.87;;;2.23;;
19251;SDS011;9760;50.944;5.304;2022-07-29T03:27:11;9.60;;;2.50;;
19251;SDS011;9760;50.944;5.304;2022-07-29T03:29:37;5.17;;;2.53;;
19251;SDS011;9760;50.944;5.304;2022-07-29T03:32:03;10.73;;;2.73;;
19251;SDS011;9760;50.944;5.304;2022-07-29T03:34:30;4.73;;;2.20;;
19251;SDS011;9760;50.944;5.304;2022-07-29T03:36:56;11.47;;;2.50;;
19251;SDS011;9760;50.944;5.304;2022-07-29T03:39:23;4.77;;;2.40;;
19251;SDS011;9760;50.944;5.304;2022-07-29T03:41:53;8.27;;;2.40;;
19251;SDS011;9760;50.944;5.304;2022-07-29T03:44:21;6.43;;;2.40;;
19251;SDS011;9760;50.944;5.304;2022-07-29T03:46:49;10.13;;;2.60;;
19251;SDS011;9760;50.944;5.304;2022-07-29T03:49:16;5.77;;;2.60;;
19251;SDS011;9760;50.944;5.304;2022-07-29T03:51:45;7.10;;;2.57;;
19251;SDS011;9760;50.944;5.304;2022-07-29T03:54:11;8.63;;;3.13;;
19251;SDS011;9760;50.944;5.304;2022-07-29T03:56:38;6.87;;;2.67;;
19251;SDS011;9760;50.944;5.304;2022-07-29T03:59:07;9.17;;;2.80;;
19251;SDS011;9760;50.944;5.304;2022-07-29T04:01:33;6.47;;;2.47;;
19251;SDS011;9760;50.944;5.304;2022-07-29T04:04:03;8.73;;;2.90;;
19251;SDS011;9760;50.944;5.304;2022-07-29T04:06:37;8.80;;;2.63;;
19251;SDS011;9760;50.944;5.304;2022-07-29T04:09:06;7.57;;;2.63;;
19251;SDS011;9760;50.944;5.304;2022-07-29T04:11:33;8.73;;;3.00;;
19251;SDS011;9760;50.944;5.304;2022-07-29T04:13:59;7.53;;;3.27;;
19251;SDS011;9760;50.944;5.304;2022-07-29T04:16:24;9.70;;;3.10;;
19251;SDS011;9760;50.944;5.304;2022-07-29T04:18:50;8.33;;;3.33;;
19251;SDS011;9760;50.944;5.304;2022-07-29T04:21:16;7.07;;;2.97;;
19251;SDS011;9760;50.944;5.304;2022-07-29T04:23:41;12.60;;;3.17;;
19251;SDS011;9760;50.944;5.304;2022-07-29T04:26:10;8.00;;;2.83;;
19251;SDS011;9760;50.944;5.304;2022-07-29T04:28:36;11.00;;;2.90;;
19251;SDS011;9760;50.944;5.304;2022-07-29T04:31:03;8.90;;;2.87;;
19251;SDS011;9760;50.944;5.304;2022-07-29T04:33:28;7.60;;;3.30;;
19251;SDS011;9760;50.944;5.304;2022-07-29T04:35:54;7.43;;;2.93;;
19251;SDS011;9760;50.944;5.304;2022-07-29T04:38:19;7.43;;;3.13;;
19251;SDS011;9760;50.944;5.304;2022-07-29T04:40:45;9.27;;;3.57;;
19251;SDS011;9760;50.944;5.304;2022-07-29T04:43:11;8.63;;;3.40;;
19251;SDS011;9760;50.944;5.304;2022-07-29T04:45:36;8.10;;;3.57;;
19251;SDS011;9760;50.944;5.304;2022-07-29T04:48:02;13.10;;;3.67;;
19251;SDS011;9760;50.944;5.304;2022-07-29T04:50:28;8.37;;;4.07;;
19251;SDS011;9760;50.944;5.304;2022-07-29T04:52:53;13.70;;;4.17;;
19251;SDS011;9760;50.944;5.304;2022-07-29T04:55:19;8.53;;;3.97;;
19251;SDS011;9760;50.944;5.304;2022-07-29T04:57:45;7.33;;;4.30;;
19251;SDS011;9760;50.944;5.304;2022-07-29T05:00:10;9.57;;;4.27;;
19251;SDS011;9760;50.944;5.304;2022-07-29T05:02:36;8.37;;;4.80;;
19251;SDS011;9760;50.944;5.304;2022-07-29T05:05:03;12.43;;;4.47;;
19251;SDS011;9760;50.944;5.304;2022-07-29T05:07:28;12.67;;;4.57;;
19251;SDS011;9760;50.944;5.304;2022-07-29T05:09:54;6.93;;;4.70;;
19251;SDS011;9760;50.944;5.304;2022-07-29T05:12:21;12.47;;;4.77;;
19251;SDS011;9760;50.944;5.304;2022-07-29T05:14:48;9.97;;;4.73;;
19251;SDS011;9760;50.944;5.304;2022-07-29T05:17:13;10.63;;;5.33;;
19251;SDS011;9760;50.944;5.304;2022-07-29T05:19:39;11.93;;;4.33;;
19251;SDS011;9760;50.944;5.304;2022-07-29T05:22:05;7.83;;;5.17;;
19251;SDS011;9760;50.944;5.304;2022-07-29T05:24:30;7.97;;;4.87;;
19251;SDS011;9760;50.944;5.304;2022-07-29T05:26:56;9.63;;;5.53;;
19251;SDS011;9760;50.944;5.304;2022-07-29T05:29:22;7.70;;;4.70;;
19251;SDS011;9760;50.944;5.304;2022-07-29T05:31:47;7.33;;;5.17;;
19251;SDS011;9760;50.944;5.304;2022-07-29T05:34:13;14.80;;;5.40;;
19251;SDS011;9760;50.944;5.304;2022-07-29T05:36:39;8.87;;;4.70;;
19251;SDS011;9760;50.944;5.304;2022-07-29T05:39:04;14.27;;;5.70;;
19251;SDS011;9760;50.944;5.304;2022-07-29T05:41:33;10.40;;;4.93;;
19251;SDS011;9760;50.944;5.304;2022-07-29T05:43:58;8.27;;;5.00;;
19251;SDS011;9760;50.944;5.304;2022-07-29T05:46:24;9.37;;;5.27;;
19251;SDS011;9760;50.944;5.304;2022-07-29T05:48:49;12.57;;;5.27;;
19251;SDS011;9760;50.944;5.304;2022-07-29T05:51:15;12.57;;;5.17;;
19251;SDS011;9760;50.944;5.304;2022-07-29T05:53:41;10.40;;;4.90;;
19251;SDS011;9760;50.944;5.304;2022-07-29T05:56:06;10.97;;;4.67;;
19251;SDS011;9760;50.944;5.304;2022-07-29T05:58:32;15.13;;;5.17;;
19251;SDS011;9760;50.944;5.304;2022-07-29T06:00:59;9.50;;;5.33;;
19251;SDS011;9760;50.944;5.304;2022-07-29T06:03:25;8.80;;;4.53;;
19251;SDS011;9760;50.944;5.304;2022-07-29T06:05:51;9.80;;;4.93;;
19251;SDS011;9760;50.944;5.304;2022-07-29T06:08:17;8.80;;;4.83;;
19251;SDS011;9760;50.944;5.304;2022-07-29T06:10:43;13.13;;;5.37;;
19251;SDS011;9760;50.944;5.304;2022-07-29T06:13:10;9.83;;;4.73;;
19251;SDS011;9760;50.944;5.304;2022-07-29T06:15:36;12.00;;;4.97;;
19251;SDS011;9760;50.944;5.304;2022-07-29T06:18:02;11.60;;;5.03;;
19251;SDS011;9760;50.944;5.304;2022-07-29T06:20:28;13.03;;;5.00;;
19251;SDS011;9760;50.944;5.304;2022-07-29T06:22:55;12.77;;;4.83;;
19251;SDS011;9760;50.944;5.304;2022-07-29T06:25:21;12.00;;;5.33;;
19251;SDS011;9760;50.944;5.304;2022-07-29T06:27:46;5.67;;;4.67;;
19251;SDS011;9760;50.944;5.304;2022-07-29T06:30:12;8.07;;;4.87;;
19251;SDS011;9760;50.944;5.304;2022-07-29T06:32:38;9.53;;;4.70;;
19251;SDS011;9760;50.944;5.304;2022-07-29T06:35:04;12.87;;;4.87;;
19251;SDS011;9760;50.944;5.304;2022-07-29T06:37:30;9.53;;;4.80;;
19251;SDS011;9760;50.944;5.304;2022-07-29T06:39:56;10.47;;;5.20;;
19251;SDS011;9760;50.944;5.304;2022-07-29T06:42:51;8.53;;;5.40;;
19251;SDS011;9760;50.944;5.304;2022-07-29T06:45:16;13.30;;;5.10;;
19251;SDS011;9760;50.944;5.304;2022-07-29T06:47:42;13.43;;;5.17;;
19251;SDS011;9760;50.944;5.304;2022-07-29T06:50:08;8.97;;;5.10;;
19251;SDS011;9760;50.944;5.304;2022-07-29T06:52:37;8.57;;;5.23;;
19251;SDS011;9760;50.944;5.304;2022-07-29T06:55:03;8.33;;;5.07;;
19251;SDS011;9760;50.944;5.304;2022-07-29T06:57:29;9.53;;;4.90;;
19251;SDS011;9760;50.944;5.304;2022-07-29T06:59:58;21.83;;;5.40;;
19251;SDS011;9760;50.944;5.304;2022-07-29T07:02:23;14.77;;;5.20;;
19251;SDS011;9760;50.944;5.304;2022-07-29T07:04:49;8.87;;;5.07;;
19251;SDS011;9760;50.944;5.304;2022-07-29T07:07:15;11.87;;;5.40;;
19251;SDS011;9760;50.944;5.304;2022-07-29T07:09:40;10.80;;;5.03;;
19251;SDS011;9760;50.944;5.304;2022-07-29T07:12:06;8.93;;;5.03;;
19251;SDS011;9760;50.944;5.304;2022-07-29T07:14:32;16.37;;;5.13;;
19251;SDS011;9760;50.944;5.304;2022-07-29T07:16:58;8.77;;;5.30;;
19251;SDS011;9760;50.944;5.304;2022-07-29T07:19:25;9.53;;;5.07;;
19251;SDS011;9760;50.944;5.304;2022-07-29T07:21:52;6.93;;;5.03;;
19251;SDS011;9760;50.944;5.304;2022-07-29T07:24:19;8.97;;;5.43;;
19251;SDS011;9760;50.944;5.304;2022-07-29T07:26:44;13.00;;;5.00;;
19251;SDS011;9760;50.944;5.304;2022-07-29T07:29:10;8.63;;;4.53;;
19251;SDS011;9760;50.944;5.304;2022-07-29T07:31:36;8.10;;;4.40;;
19251;SDS011;9760;50.944;5.304;2022-07-29T07:34:03;10.23;;;4.83;;
19251;SDS011;9760;50.944;5.304;2022-07-29T07:36:28;14.37;;;5.03;;
19251;SDS011;9760;50.944;5.304;2022-07-29T07:38:54;10.57;;;5.17;;
19251;SDS011;9760;50.944;5.304;2022-07-29T07:41:20;16.40;;;5.37;;
19251;SDS011;9760;50.944;5.304;2022-07-29T07:43:47;11.67;;;5.00;;
19251;SDS011;9760;50.944;5.304;2022-07-29T07:46:13;7.10;;;4.17;;
19251;SDS011;9760;50.944;5.304;2022-07-29T07:48:39;6.43;;;3.93;;
19251;SDS011;9760;50.944;5.304;2022-07-29T07:51:04;9.60;;;4.60;;
19251;SDS011;9760;50.944;5.304;2022-07-29T07:53:30;9.60;;;4.37;;
19251;SDS011;9760;50.944;5.304;2022-07-29T07:55:55;8.37;;;4.50;;
19251;SDS011;9760;50.944;5.304;2022-07-29T07:58:21;9.03;;;4.40;;
19251;SDS011;9760;50.944;5.304;2022-07-29T08:00:47;13.33;;;4.27;;
19251;SDS011;9760;50.944;5.304;2022-07-29T08:03:12;14.43;;;4.20;;
19251;SDS011;9760;50.944;5.304;2022-07-29T08:05:39;11.10;;;3.77;;
19251;SDS011;9760;50.944;5.304;2022-07-29T08:08:05;7.03;;;4.13;;
19251;SDS011;9760;50.944;5.304;2022-07-29T08:10:31;6.57;;;3.60;;
19251;SDS011;9760;50.944;5.304;2022-07-29T08:13:16;12.93;;;3.80;;
19251;SDS011;9760;50.944;5.304;2022-07-29T08:15:41;9.50;;;3.90;;
19251;SDS011;9760;50.944;5.304;2022-07-29T08:18:08;8.60;;;3.90;;
19251;SDS011;9760;50.944;5.304;2022-07-29T08:20:34;8.63;;;3.57;;
19251;SDS011;9760;50.944;5.304;2022-07-29T08:23:04;8.97;;;3.23;;
19251;SDS011;9760;50.944;5.304;2022-07-29T08:25:40;7.17;;;3.70;;
19251;SDS011;9760;50.944;5.304;2022-07-29T08:28:06;9.83;;;4.10;;
19251;SDS011;9760;50.944;5.304;2022-07-29T08:30:32;7.47;;;3.83;;
19251;SDS011;9760;50.944;5.304;2022-07-29T08:32:58;6.10;;;3.50;;
19251;SDS011;9760;50.944;5.304;2022-07-29T08:35:24;8.43;;;3.40;;
19251;SDS011;9760;50.944;5.304;2022-07-29T08:37:50;9.70;;;4.00;;
19251;SDS011;9760;50.944;5.304;2022-07-29T08:40:17;7.60;;;4.03;;
19251;SDS011;9760;50.944;5.304;2022-07-29T08:42:43;11.37;;;3.63;;
19251;SDS011;9760;50.944;5.304;2022-07-29T08:45:09;8.03;;;3.50;;
19251;SDS011;9760;50.944;5.304;2022-07-29T08:47:35;7.33;;;4.00;;
19251;SDS011;9760;50.944;5.304;2022-07-29T08:50:05;5.30;;;3.50;;
19251;SDS011;9760;50.944;5.304;2022-07-29T08:52:38;9.57;;;4.10;;
19251;SDS011;9760;50.944;5.304;2022-07-29T08:55:05;13.57;;;3.60;;
19251;SDS011;9760;50.944;5.304;2022-07-29T08:57:34;9.30;;;3.67;;
19251;SDS011;9760;50.944;5.304;2022-07-29T09:00:00;13.47;;;4.53;;
19251;SDS011;9760;50.944;5.304;2022-07-29T09:02:29;10.10;;;3.50;;
19251;SDS011;9760;50.944;5.304;2022-07-29T09:05:00;6.60;;;3.90;;
19251;SDS011;9760;50.944;5.304;2022-07-29T09:07:27;7.47;;;3.73;;
19251;SDS011;9760;50.944;5.304;2022-07-29T09:09:53;10.60;;;3.63;;
19251;SDS011;9760;50.944;5.304;2022-07-29T09:12:19;8.47;;;4.10;;
19251;SDS011;9760;50.944;5.304;2022-07-29T09:14:47;6.57;;;3.70;;
19251;SDS011;9760;50.944;5.304;2022-07-29T09:17:13;11.40;;;4.00;;
19251;SDS011;9760;50.944;5.304;2022-07-29T09:19:41;9.07;;;3.57;;
19251;SDS011;9760;50.944;5.304;2022-07-29T09:22:07;9.43;;;3.83;;
19251;SDS011;9760;50.944;5.304;2022-07-29T09:27:07;7.97;;;3.53;;
19251;SDS011;9760;50.944;5.304;2022-07-29T09:29:34;11.63;;;4.13;;
19251;SDS011;9760;50.944;5.304;2022-07-29T09:32:01;11.87;;;3.80;;
19251;SDS011;9760;50.944;5.304;2022-07-29T09:34:32;9.30;;;4.00;;
19251;SDS011;9760;50.944;5.304;2022-07-29T09:36:58;8.10;;;3.20;;
19251;SDS011;9760;50.944;5.304;2022-07-29T09:39:28;7.67;;;3.13;;
19251;SDS011;9760;50.944;5.304;2022-07-29T09:42:02;7.53;;;3.10;;
19251;SDS011;9760;50.944;5.304;2022-07-29T09:44:43;9.17;;;3.67;;
19251;SDS011;9760;50.944;5.304;2022-07-29T09:47:10;10.53;;;3.23;;
19251;SDS011;9760;50.944;5.304;2022-07-29T09:49:56;5.40;;;2.80;;
19251;SDS011;9760;50.944;5.304;2022-07-29T09:52:23;10.23;;;3.40;;
19251;SDS011;9760;50.944;5.304;2022-07-29T09:54:49;4.93;;;2.40;;
19251;SDS011;9760;50.944;5.304;2022-07-29T09:57:27;9.53;;;3.20;;
19251;SDS011;9760;50.944;5.304;2022-07-29T09:59:57;6.00;;;3.20;;
19251;SDS011;9760;50.944;5.304;2022-07-29T10:02:28;7.10;;;2.60;;
19251;SDS011;9760;50.944;5.304;2022-07-29T10:04:55;10.37;;;3.20;;
19251;SDS011;9760;50.944;5.304;2022-07-29T10:07:22;5.63;;;2.53;;
19251;SDS011;9760;50.944;5.304;2022-07-29T10:09:54;9.87;;;2.60;;
19251;SDS011;9760;50.944;5.304;2022-07-29T10:12:22;4.23;;;2.50;;
19251;SDS011;9760;50.944;5.304;2022-07-29T10:14:49;7.97;;;3.03;;
19251;SDS011;9760;50.944;5.304;2022-07-29T10:17:15;5.20;;;2.33;;
19251;SDS011;9760;50.944;5.304;2022-07-29T10:19:43;6.97;;;2.80;;
19251;SDS011;9760;50.944;5.304;2022-07-29T10:22:09;6.43;;;2.43;;
19251;SDS011;9760;50.944;5.304;2022-07-29T10:24:36;6.80;;;2.77;;
19251;SDS011;9760;50.944;5.304;2022-07-29T10:27:05;7.27;;;2.53;;
19251;SDS011;9760;50.944;5.304;2022-07-29T10:29:32;8.47;;;2.53;;
19251;SDS011;9760;50.944;5.304;2022-07-29T10:32:07;2.70;;;2.50;;
19251;SDS011;9760;50.944;5.304;2022-07-29T10:37:50;7.87;;;2.87;;
19251;SDS011;9760;50.944;5.304;2022-07-29T10:43:41;5.33;;;2.60;;
19251;SDS011;9760;50.944;5.304;2022-07-29T10:46:10;6.73;;;2.43;;
19251;SDS011;9760;50.944;5.304;2022-07-29T10:54:35;6.00;;;2.00;;
19251;SDS011;9760;50.944;5.304;2022-07-29T10:57:13;6.43;;;2.30;;
19251;SDS011;9760;50.944;5.304;2022-07-29T10:59:39;7.23;;;2.40;;
19251;SDS011;9760;50.944;5.304;2022-07-29T11:04:59;11.47;;;2.03;;
19251;SDS011;9760;50.944;5.304;2022-07-29T11:07:30;5.77;;;2.17;;
19251;SDS011;9760;50.944;5.304;2022-07-29T11:15:06;7.77;;;2.13;;
19251;SDS011;9760;50.944;5.304;2022-07-29T11:20:37;4.30;;;2.03;;
19251;SDS011;9760;50.944;5.304;2022-07-29T11:32:07;5.07;;;2.00;;
19251;SDS011;9760;50.944;5.304;2022-07-29T11:39:38;6.17;;;1.90;;
19251;SDS011;9760;50.944;5.304;2022-07-29T11:45:05;4.60;;;2.20;;
19251;SDS011;9760;50.944;5.304;2022-07-29T11:47:36;7.17;;;2.20;;
19251;SDS011;9760;50.944;5.304;2022-07-29T11:50:04;8.17;;;2.43;;
19251;SDS011;9760;50.944;5.304;2022-07-29T11:52:37;9.47;;;2.03;;
19251;SDS011;9760;50.944;5.304;2022-07-29T11:55:09;7.47;;;2.40;;
19251;SDS011;9760;50.944;5.304;2022-07-29T11:57:37;5.97;;;2.77;;
19251;SDS011;9760;50.944;5.304;2022-07-29T12:00:11;5.43;;;1.87;;
19251;SDS011;9760;50.944;5.304;2022-07-29T12:02:45;7.10;;;2.00;;
19251;SDS011;9760;50.944;5.304;2022-07-29T12:05:11;6.50;;;1.97;;
19251;SDS011;9760;50.944;5.304;2022-07-29T12:07:36;9.60;;;2.20;;
19251;SDS011;9760;50.944;5.304;2022-07-29T12:10:03;3.60;;;1.80;;
19251;SDS011;9760;50.944;5.304;2022-07-29T12:12:30;5.10;;;2.20;;
19251;SDS011;9760;50.944;5.304;2022-07-29T12:14:56;4.70;;;1.87;;
19251;SDS011;9760;50.944;5.304;2022-07-29T12:17:26;3.73;;;1.50;;
19251;SDS011;9760;50.944;5.304;2022-07-29T12:19:56;4.80;;;2.00;;
19251;SDS011;9760;50.944;5.304;2022-07-29T12:22:25;2.80;;;1.77;;
19251;SDS011;9760;50.944;5.304;2022-07-29T12:25:00;9.23;;;1.97;;
19251;SDS011;9760;50.944;5.304;2022-07-29T12:27:27;4.50;;;1.83;;
19251;SDS011;9760;50.944;5.304;2022-07-29T12:29:59;3.93;;;1.97;;
19251;SDS011;9760;50.944;5.304;2022-07-29T12:32:44;4.40;;;1.90;;
19251;SDS011;9760;50.944;5.304;2022-07-29T12:35:14;3.97;;;1.80;;
19251;SDS011;9760;50.944;5.304;2022-07-29T12:37:43;5.20;;;2.00;;
19251;SDS011;9760;50.944;5.304;2022-07-29T12:40:11;5.43;;;2.00;;
19251;SDS011;9760;50.944;5.304;2022-07-29T12:42:38;5.87;;;2.07;;
19251;SDS011;9760;50.944;5.304;2022-07-29T12:45:04;6.20;;;1.67;;
19251;SDS011;9760;50.944;5.304;2022-07-29T12:47:31;3.07;;;1.77;;
19251;SDS011;9760;50.944;5.304;2022-07-29T12:52:52;5.17;;;1.90;;
19251;SDS011;9760;50.944;5.304;2022-07-29T12:58:07;5.70;;;1.70;;
19251;SDS011;9760;50.944;5.304;2022-07-29T13:00:32;5.47;;;1.87;;
19251;SDS011;9760;50.944;5.304;2022-07-29T13:03:01;3.50;;;1.90;;
19251;SDS011;9760;50.944;5.304;2022-07-29T13:05:43;4.10;;;1.80;;
19251;SDS011;9760;50.944;5.304;2022-07-29T13:08:13;12.27;;;1.80;;
19251;SDS011;9760;50.944;5.304;2022-07-29T13:10:40;3.13;;;1.60;;
19251;SDS011;9760;50.944;5.304;2022-07-29T13:13:08;4.20;;;1.83;;
19251;SDS011;9760;50.944;5.304;2022-07-29T13:15:36;4.27;;;1.47;;
19251;SDS011;9760;50.944;5.304;2022-07-29T13:18:04;5.87;;;1.87;;
19251;SDS011;9760;50.944;5.304;2022-07-29T13:20:49;6.10;;;1.93;;
19251;SDS011;9760;50.944;5.304;2022-07-29T13:23:15;3.60;;;1.60;;
19251;SDS011;9760;50.944;5.304;2022-07-29T13:25:41;5.63;;;2.10;;
19251;SDS011;9760;50.944;5.304;2022-07-29T13:28:06;3.30;;;1.60;;
19251;SDS011;9760;50.944;5.304;2022-07-29T13:30:32;6.10;;;1.67;;
19251;SDS011;9760;50.944;5.304;2022-07-29T13:32:58;9.67;;;2.10;;
19251;SDS011;9760;50.944;5.304;2022-07-29T13:35:23;3.70;;;1.80;;
19251;SDS011;9760;50.944;5.304;2022-07-29T13:37:49;4.90;;;1.40;;
19251;SDS011;9760;50.944;5.304;2022-07-29T13:40:15;8.63;;;1.80;;
19251;SDS011;9760;50.944;5.304;2022-07-29T13:42:41;2.53;;;1.70;;
19251;SDS011;9760;50.944;5.304;2022-07-29T13:45:07;5.23;;;1.33;;
19251;SDS011;9760;50.944;5.304;2022-07-29T13:47:34;4.70;;;1.80;;
19251;SDS011;9760;50.944;5.304;2022-07-29T13:50:00;4.13;;;1.47;;
19251;SDS011;9760;50.944;5.304;2022-07-29T13:52:26;3.00;;;1.23;;
19251;SDS011;9760;50.944;5.304;2022-07-29T13:54:52;2.33;;;1.30;;
19251;SDS011;9760;50.944;5.304;2022-07-29T13:57:17;3.83;;;1.43;;
19251;SDS011;9760;50.944;5.304;2022-07-29T13:59:44;4.37;;;1.10;;
19251;SDS011;9760;50.944;5.304;2022-07-29T14:02:09;9.10;;;1.63;;
19251;SDS011;9760;50.944;5.304;2022-07-29T14:04:37;5.40;;;1.50;;
19251;SDS011;9760;50.944;5.304;2022-07-29T14:07:03;5.60;;;2.20;;
19251;SDS011;9760;50.944;5.304;2022-07-29T14:09:29;5.03;;;1.60;;
19251;SDS011;9760;50.944;5.304;2022-07-29T14:11:55;5.97;;;1.60;;
19251;SDS011;9760;50.944;5.304;2022-07-29T14:14:21;4.83;;;1.70;;
19251;SDS011;9760;50.944;5.304;2022-07-29T14:16:46;8.63;;;1.47;;
19251;SDS011;9760;50.944;5.304;2022-07-29T14:19:12;2.80;;;1.40;;
19251;SDS011;9760;50.944;5.304;2022-07-29T14:21:38;5.50;;;1.67;;
19251;SDS011;9760;50.944;5.304;2022-07-29T14:24:04;4.47;;;1.70;;
19251;SDS011;9760;50.944;5.304;2022-07-29T14:26:31;2.90;;;1.40;;
19251;SDS011;9760;50.944;5.304;2022-07-29T14:28:56;4.70;;;1.77;;
19251;SDS011;9760;50.944;5.304;2022-07-29T14:31:22;5.77;;;1.70;;
19251;SDS011;9760;50.944;5.304;2022-07-29T14:33:48;8.07;;;2.03;;
19251;SDS011;9760;50.944;5.304;2022-07-29T14:36:13;3.17;;;1.53;;
19251;SDS011;9760;50.944;5.304;2022-07-29T14:38:39;8.57;;;1.60;;
19251;SDS011;9760;50.944;5.304;2022-07-29T14:41:05;5.53;;;1.90;;
19251;SDS011;9760;50.944;5.304;2022-07-29T14:43:32;4.60;;;1.73;;
19251;SDS011;9760;50.944;5.304;2022-07-29T14:45:59;8.10;;;1.67;;
19251;SDS011;9760;50.944;5.304;2022-07-29T14:48:25;5.30;;;1.50;;
19251;SDS011;9760;50.944;5.304;2022-07-29T14:50:51;9.80;;;1.83;;
19251;SDS011;9760;50.944;5.304;2022-07-29T14:53:17;7.10;;;1.70;;
19251;SDS011;9760;50.944;5.304;2022-07-29T14:55:43;4.70;;;1.67;;
19251;SDS011;9760;50.944;5.304;2022-07-29T14:58:09;6.80;;;1.60;;
19251;SDS011;9760;50.944;5.304;2022-07-29T15:00:34;6.97;;;1.80;;
19251;SDS011;9760;50.944;5.304;2022-07-29T15:03:01;2.53;;;1.43;;
19251;SDS011;9760;50.944;5.304;2022-07-29T15:05:28;8.13;;;1.80;;
19251;SDS011;9760;50.944;5.304;2022-07-29T15:07:54;4.20;;;1.77;;
19251;SDS011;9760;50.944;5.304;2022-07-29T15:10:20;3.50;;;1.53;;
19251;SDS011;9760;50.944;5.304;2022-07-29T15:12:46;5.07;;;1.60;;
19251;SDS011;9760;50.944;5.304;2022-07-29T15:15:11;5.57;;;1.60;;
19251;SDS011;9760;50.944;5.304;2022-07-29T15:17:37;6.97;;;1.57;;
19251;SDS011;9760;50.944;5.304;2022-07-29T15:20:03;4.07;;;1.30;;
19251;SDS011;9760;50.944;5.304;2022-07-29T15:22:29;2.17;;;1.40;;
19251;SDS011;9760;50.944;5.304;2022-07-29T15:24:55;4.47;;;1.60;;
19251;SDS011;9760;50.944;5.304;2022-07-29T15:27:20;3.97;;;1.60;;
19251;SDS011;9760;50.944;5.304;2022-07-29T15:29:46;6.67;;;1.80;;
19251;SDS011;9760;50.944;5.304;2022-07-29T15:32:12;7.53;;;1.50;;
19251;SDS011;9760;50.944;5.304;2022-07-29T15:34:38;7.87;;;1.93;;
19251;SDS011;9760;50.944;5.304;2022-07-29T15:37:04;3.33;;;1.63;;
19251;SDS011;9760;50.944;5.304;2022-07-29T15:39:30;7.30;;;1.80;;
19251;SDS011;9760;50.944;5.304;2022-07-29T15:41:56;6.63;;;1.87;;
19251;SDS011;9760;50.944;5.304;2022-07-29T15:44:24;8.97;;;1.90;;
19251;SDS011;9760;50.944;5.304;2022-07-29T15:46:49;8.23;;;1.70;;
19251;SDS011;9760;50.944;5.304;2022-07-29T15:49:37;8.90;;;2.10;;
19251;SDS011;9760;50.944;5.304;2022-07-29T15:52:05;8.63;;;1.93;;
19251;SDS011;9760;50.944;5.304;2022-07-29T15:54:32;10.27;;;1.93;;
19251;SDS011;9760;50.944;5.304;2022-07-29T15:57:03;5.00;;;1.70;;
19251;SDS011;9760;50.944;5.304;2022-07-29T15:59:30;6.07;;;1.40;;
19251;SDS011;9760;50.944;5.304;2022-07-29T16:01:56;6.00;;;1.80;;
19251;SDS011;9760;50.944;5.304;2022-07-29T16:04:22;7.73;;;2.10;;
19251;SDS011;9760;50.944;5.304;2022-07-29T16:06:48;8.40;;;1.73;;
19251;SDS011;9760;50.944;5.304;2022-07-29T16:09:14;4.37;;;1.93;;
19251;SDS011;9760;50.944;5.304;2022-07-29T16:11:42;3.87;;;1.80;;